Terminal Aerodrome Forecast
Issued by NWS

Home | Current Version | Previous Version | Text Only | Print | Product List | Glossary On
Versions: 1 2 3 4 5 6 7 8 9 10 11 12 13 14
565
FTUS43 KMPX 252336
TAFRWF
TAF
KRWF 252336Z 2600/2624 21012KT P6SM BKN050
     FM261400 26010KT P6SM BKN070
     FM261600 29012G18KT P6SM SCT090=

USA.gov is the U.S. government's official web portal to all federal, state and local government web resources and services.